sensor_id;sensor_type;location;lat;lon;timestamp;P1;durP1;ratioP1;P2;durP2;ratioP2
69931;SDS011;57243;52.064;5.116;2022-08-03T00:02:24;5.82;;;1.30;;
69931;SDS011;57243;52.064;5.116;2022-08-03T00:04:50;5.23;;;1.20;;
69931;SDS011;57243;52.064;5.116;2022-08-03T00:07:15;4.32;;;1.42;;
69931;SDS011;57243;52.064;5.116;2022-08-03T00:09:41;4.47;;;1.13;;
69931;SDS011;57243;52.064;5.116;2022-08-03T00:12:07;4.55;;;1.10;;
69931;SDS011;57243;52.064;5.116;2022-08-03T00:14:33;2.97;;;1.30;;
69931;SDS011;57243;52.064;5.116;2022-08-03T00:16:59;2.90;;;0.98;;
69931;SDS011;57243;52.064;5.116;2022-08-03T00:19:24;7.60;;;0.90;;
69931;SDS011;57243;52.064;5.116;2022-08-03T00:21:50;3.55;;;1.20;;
69931;SDS011;57243;52.064;5.116;2022-08-03T00:24:16;3.37;;;1.00;;
69931;SDS011;57243;52.064;5.116;2022-08-03T00:26:41;4.47;;;1.25;;
69931;SDS011;57243;52.064;5.116;2022-08-03T00:29:07;2.77;;;1.17;;
69931;SDS011;57243;52.064;5.116;2022-08-03T00:31:32;4.07;;;1.07;;
69931;SDS011;57243;52.064;5.116;2022-08-03T00:33:58;3.13;;;1.08;;
69931;SDS011;57243;52.064;5.116;2022-08-03T00:36:24;3.93;;;0.90;;
69931;SDS011;57243;52.064;5.116;2022-08-03T00:38:49;2.78;;;1.00;;
69931;SDS011;57243;52.064;5.116;2022-08-03T00:41:15;3.60;;;1.00;;
69931;SDS011;57243;52.064;5.116;2022-08-03T00:43:40;3.97;;;1.20;;
69931;SDS011;57243;52.064;5.116;2022-08-03T00:46:06;2.25;;;1.20;;
69931;SDS011;57243;52.064;5.116;2022-08-03T00:48:31;3.53;;;0.97;;
69931;SDS011;57243;52.064;5.116;2022-08-03T00:50:57;2.10;;;1.33;;
69931;SDS011;57243;52.064;5.116;2022-08-03T00:53:23;4.57;;;1.10;;
69931;SDS011;57243;52.064;5.116;2022-08-03T00:55:49;4.00;;;1.10;;
69931;SDS011;57243;52.064;5.116;2022-08-03T00:58:15;3.37;;;0.83;;
69931;SDS011;57243;52.064;5.116;2022-08-03T01:00:41;4.68;;;1.10;;
69931;SDS011;57243;52.064;5.116;2022-08-03T01:03:07;2.70;;;1.03;;
69931;SDS011;57243;52.064;5.116;2022-08-03T01:05:37;3.30;;;1.13;;
69931;SDS011;57243;52.064;5.116;2022-08-03T01:08:21;3.15;;;1.20;;
69931;SDS011;57243;52.064;5.116;2022-08-03T01:11:11;2.63;;;0.90;;
69931;SDS011;57243;52.064;5.116;2022-08-03T01:13:49;1.85;;;0.90;;
69931;SDS011;57243;52.064;5.116;2022-08-03T01:18:57;3.13;;;0.93;;
69931;SDS011;57243;52.064;5.116;2022-08-03T01:21:39;2.40;;;0.93;;
69931;SDS011;57243;52.064;5.116;2022-08-03T01:26:59;3.40;;;1.30;;
69931;SDS011;57243;52.064;5.116;2022-08-03T01:29:51;3.78;;;1.02;;
69931;SDS011;57243;52.064;5.116;2022-08-03T01:35:01;3.08;;;0.90;;
69931;SDS011;57243;52.064;5.116;2022-08-03T01:37:38;3.97;;;1.00;;
69931;SDS011;57243;52.064;5.116;2022-08-03T01:40:07;2.43;;;1.17;;
69931;SDS011;57243;52.064;5.116;2022-08-03T01:42:37;3.67;;;1.15;;
69931;SDS011;57243;52.064;5.116;2022-08-03T01:45:05;1.55;;;1.13;;
69931;SDS011;57243;52.064;5.116;2022-08-03T01:47:32;1.80;;;0.98;;
69931;SDS011;57243;52.064;5.116;2022-08-03T01:49:59;2.30;;;0.82;;
69931;SDS011;57243;52.064;5.116;2022-08-03T01:52:27;4.50;;;1.00;;
69931;SDS011;57243;52.064;5.116;2022-08-03T01:54:54;1.98;;;0.70;;
69931;SDS011;57243;52.064;5.116;2022-08-03T01:57:22;3.92;;;1.08;;
69931;SDS011;57243;52.064;5.116;2022-08-03T01:59:49;1.65;;;0.80;;
69931;SDS011;57243;52.064;5.116;2022-08-03T02:02:16;3.60;;;1.00;;
69931;SDS011;57243;52.064;5.116;2022-08-03T02:04:43;2.50;;;1.07;;
69931;SDS011;57243;52.064;5.116;2022-08-03T02:07:11;3.17;;;1.10;;
69931;SDS011;57243;52.064;5.116;2022-08-03T02:09:39;2.50;;;0.93;;
69931;SDS011;57243;52.064;5.116;2022-08-03T02:12:11;3.63;;;1.10;;
69931;SDS011;57243;52.064;5.116;2022-08-03T02:14:38;3.45;;;1.13;;
69931;SDS011;57243;52.064;5.116;2022-08-03T02:17:06;3.97;;;1.27;;
69931;SDS011;57243;52.064;5.116;2022-08-03T02:19:32;2.25;;;1.02;;
69931;SDS011;57243;52.064;5.116;2022-08-03T02:21:59;2.90;;;1.00;;
69931;SDS011;57243;52.064;5.116;2022-08-03T02:24:25;2.65;;;1.15;;
69931;SDS011;57243;52.064;5.116;2022-08-03T02:26:52;2.40;;;0.98;;
69931;SDS011;57243;52.064;5.116;2022-08-03T02:29:21;2.67;;;1.13;;
69931;SDS011;57243;52.064;5.116;2022-08-03T02:31:50;2.67;;;1.00;;
69931;SDS011;57243;52.064;5.116;2022-08-03T02:34:19;2.80;;;1.00;;
69931;SDS011;57243;52.064;5.116;2022-08-03T02:36:48;1.80;;;0.90;;
69931;SDS011;57243;52.064;5.116;2022-08-03T02:39:16;2.58;;;0.90;;
69931;SDS011;57243;52.064;5.116;2022-08-03T02:41:51;2.67;;;0.93;;
69931;SDS011;57243;52.064;5.116;2022-08-03T02:44:20;2.55;;;1.10;;
69931;SDS011;57243;52.064;5.116;2022-08-03T02:46:52;2.30;;;1.17;;
69931;SDS011;57243;52.064;5.116;2022-08-03T02:49:19;3.05;;;1.10;;
69931;SDS011;57243;52.064;5.116;2022-08-03T02:51:46;3.20;;;1.00;;
69931;SDS011;57243;52.064;5.116;2022-08-03T02:54:13;2.13;;;0.90;;
69931;SDS011;57243;52.064;5.116;2022-08-03T02:56:41;3.67;;;1.15;;
69931;SDS011;57243;52.064;5.116;2022-08-03T02:59:10;4.40;;;1.20;;
69931;SDS011;57243;52.064;5.116;2022-08-03T03:01:37;2.65;;;1.20;;
69931;SDS011;57243;52.064;5.116;2022-08-03T03:04:03;3.03;;;0.90;;
69931;SDS011;57243;52.064;5.116;2022-08-03T03:06:30;1.73;;;0.87;;
69931;SDS011;57243;52.064;5.116;2022-08-03T03:08:56;2.92;;;1.10;;
69931;SDS011;57243;52.064;5.116;2022-08-03T03:11:22;2.40;;;1.05;;
69931;SDS011;57243;52.064;5.116;2022-08-03T03:13:50;2.78;;;1.10;;
69931;SDS011;57243;52.064;5.116;2022-08-03T03:16:16;3.55;;;1.20;;
69931;SDS011;57243;52.064;5.116;2022-08-03T03:18:43;2.43;;;1.00;;
69931;SDS011;57243;52.064;5.116;2022-08-03T03:21:09;5.28;;;1.40;;
69931;SDS011;57243;52.064;5.116;2022-08-03T03:23:37;5.22;;;1.52;;
69931;SDS011;57243;52.064;5.116;2022-08-03T03:26:04;3.33;;;1.10;;
69931;SDS011;57243;52.064;5.116;2022-08-03T03:28:31;2.85;;;1.10;;
69931;SDS011;57243;52.064;5.116;2022-08-03T03:30:57;3.00;;;1.20;;
69931;SDS011;57243;52.064;5.116;2022-08-03T03:33:23;2.20;;;1.05;;
69931;SDS011;57243;52.064;5.116;2022-08-03T03:35:50;4.30;;;1.33;;
69931;SDS011;57243;52.064;5.116;2022-08-03T03:38:17;4.40;;;1.67;;
69931;SDS011;57243;52.064;5.116;2022-08-03T03:40:42;2.38;;;1.33;;
69931;SDS011;57243;52.064;5.116;2022-08-03T03:43:09;3.90;;;1.23;;
69931;SDS011;57243;52.064;5.116;2022-08-03T03:45:35;1.98;;;1.23;;
69931;SDS011;57243;52.064;5.116;2022-08-03T03:48:05;3.30;;;1.20;;
69931;SDS011;57243;52.064;5.116;2022-08-03T03:50:32;4.35;;;1.38;;
69931;SDS011;57243;52.064;5.116;2022-08-03T03:52:59;3.13;;;1.17;;
69931;SDS011;57243;52.064;5.116;2022-08-03T03:55:25;4.07;;;1.30;;
69931;SDS011;57243;52.064;5.116;2022-08-03T03:57:51;3.70;;;1.33;;
69931;SDS011;57243;52.064;5.116;2022-08-03T04:00:17;4.20;;;1.20;;
69931;SDS011;57243;52.064;5.116;2022-08-03T04:02:43;2.10;;;0.90;;
69931;SDS011;57243;52.064;5.116;2022-08-03T04:05:09;2.13;;;1.05;;
69931;SDS011;57243;52.064;5.116;2022-08-03T04:07:58;1.43;;;1.00;;
69931;SDS011;57243;52.064;5.116;2022-08-03T04:11:00;4.38;;;1.10;;
69931;SDS011;57243;52.064;5.116;2022-08-03T04:13:34;3.13;;;1.20;;
69931;SDS011;57243;52.064;5.116;2022-08-03T04:16:02;3.60;;;1.05;;
69931;SDS011;57243;52.064;5.116;2022-08-03T04:18:29;2.17;;;1.02;;
69931;SDS011;57243;52.064;5.116;2022-08-03T04:21:00;3.40;;;1.50;;
69931;SDS011;57243;52.064;5.116;2022-08-03T04:23:30;2.33;;;1.30;;
69931;SDS011;57243;52.064;5.116;2022-08-03T04:25:58;4.15;;;1.42;;
69931;SDS011;57243;52.064;5.116;2022-08-03T04:28:27;4.63;;;1.50;;
69931;SDS011;57243;52.064;5.116;2022-08-03T04:30:54;5.95;;;1.50;;
69931;SDS011;57243;52.064;5.116;2022-08-03T04:33:21;3.73;;;1.30;;
69931;SDS011;57243;52.064;5.116;2022-08-03T04:35:50;6.28;;;1.45;;
69931;SDS011;57243;52.064;5.116;2022-08-03T04:38:19;4.75;;;1.50;;
69931;SDS011;57243;52.064;5.116;2022-08-03T04:40:47;4.38;;;1.20;;
69931;SDS011;57243;52.064;5.116;2022-08-03T04:43:13;8.75;;;1.70;;
69931;SDS011;57243;52.064;5.116;2022-08-03T04:45:41;6.80;;;1.27;;
69931;SDS011;57243;52.064;5.116;2022-08-03T04:48:08;8.70;;;1.70;;
69931;SDS011;57243;52.064;5.116;2022-08-03T04:50:34;5.75;;;1.90;;
69931;SDS011;57243;52.064;5.116;2022-08-03T04:53:00;6.13;;;1.67;;
69931;SDS011;57243;52.064;5.116;2022-08-03T04:55:26;6.47;;;1.60;;
69931;SDS011;57243;52.064;5.116;2022-08-03T04:57:52;6.85;;;1.90;;
69931;SDS011;57243;52.064;5.116;2022-08-03T05:00:18;4.63;;;1.67;;
69931;SDS011;57243;52.064;5.116;2022-08-03T05:02:44;4.72;;;1.55;;
69931;SDS011;57243;52.064;5.116;2022-08-03T05:05:10;7.93;;;1.73;;
69931;SDS011;57243;52.064;5.116;2022-08-03T05:07:36;7.28;;;1.80;;
69931;SDS011;57243;52.064;5.116;2022-08-03T05:10:05;7.75;;;1.77;;
69931;SDS011;57243;52.064;5.116;2022-08-03T05:12:32;7.47;;;1.92;;
69931;SDS011;57243;52.064;5.116;2022-08-03T05:14:57;3.75;;;1.60;;
69931;SDS011;57243;52.064;5.116;2022-08-03T05:17:23;5.93;;;1.90;;
69931;SDS011;57243;52.064;5.116;2022-08-03T05:19:48;6.90;;;1.63;;
69931;SDS011;57243;52.064;5.116;2022-08-03T05:22:14;8.73;;;1.90;;
69931;SDS011;57243;52.064;5.116;2022-08-03T05:24:39;9.30;;;2.03;;
69931;SDS011;57243;52.064;5.116;2022-08-03T05:27:05;5.70;;;1.40;;
69931;SDS011;57243;52.064;5.116;2022-08-03T05:29:30;5.32;;;1.50;;
69931;SDS011;57243;52.064;5.116;2022-08-03T05:31:56;7.20;;;1.70;;
69931;SDS011;57243;52.064;5.116;2022-08-03T05:34:21;7.43;;;1.77;;
69931;SDS011;57243;52.064;5.116;2022-08-03T05:36:47;9.23;;;2.33;;
69931;SDS011;57243;52.064;5.116;2022-08-03T05:39:13;9.07;;;1.60;;
69931;SDS011;57243;52.064;5.116;2022-08-03T05:41:38;6.13;;;1.80;;
69931;SDS011;57243;52.064;5.116;2022-08-03T05:44:04;7.40;;;1.63;;
69931;SDS011;57243;52.064;5.116;2022-08-03T05:46:30;9.23;;;1.90;;
69931;SDS011;57243;52.064;5.116;2022-08-03T05:48:56;11.15;;;2.08;;
69931;SDS011;57243;52.064;5.116;2022-08-03T05:51:21;11.73;;;1.90;;
69931;SDS011;57243;52.064;5.116;2022-08-03T05:53:47;7.47;;;1.98;;
69931;SDS011;57243;52.064;5.116;2022-08-03T05:56:13;8.80;;;1.80;;
69931;SDS011;57243;52.064;5.116;2022-08-03T05:58:39;8.23;;;2.00;;
69931;SDS011;57243;52.064;5.116;2022-08-03T06:01:04;20.98;;;1.98;;
69931;SDS011;57243;52.064;5.116;2022-08-03T06:03:30;8.40;;;2.03;;
69931;SDS011;57243;52.064;5.116;2022-08-03T06:05:55;12.00;;;2.37;;
69931;SDS011;57243;52.064;5.116;2022-08-03T06:08:21;13.05;;;2.05;;
69931;SDS011;57243;52.064;5.116;2022-08-03T06:10:47;13.10;;;2.00;;
69931;SDS011;57243;52.064;5.116;2022-08-03T06:13:13;14.45;;;2.00;;
69931;SDS011;57243;52.064;5.116;2022-08-03T06:15:39;9.52;;;1.77;;
69931;SDS011;57243;52.064;5.116;2022-08-03T06:18:06;10.43;;;2.05;;
69931;SDS011;57243;52.064;5.116;2022-08-03T06:20:32;9.10;;;2.03;;
69931;SDS011;57243;52.064;5.116;2022-08-03T06:22:57;12.13;;;2.08;;
69931;SDS011;57243;52.064;5.116;2022-08-03T06:25:24;11.45;;;1.80;;
69931;SDS011;57243;52.064;5.116;2022-08-03T06:27:50;6.30;;;1.87;;
69931;SDS011;57243;52.064;5.116;2022-08-03T06:30:15;11.40;;;2.38;;
69931;SDS011;57243;52.064;5.116;2022-08-03T06:32:42;8.32;;;2.00;;
69931;SDS011;57243;52.064;5.116;2022-08-03T06:35:08;6.70;;;2.47;;
69931;SDS011;57243;52.064;5.116;2022-08-03T06:37:40;7.53;;;1.73;;
69931;SDS011;57243;52.064;5.116;2022-08-03T06:40:09;8.98;;;1.73;;
69931;SDS011;57243;52.064;5.116;2022-08-03T06:42:36;9.43;;;1.80;;
69931;SDS011;57243;52.064;5.116;2022-08-03T06:45:01;10.27;;;2.15;;
69931;SDS011;57243;52.064;5.116;2022-08-03T06:47:28;7.32;;;1.80;;
69931;SDS011;57243;52.064;5.116;2022-08-03T06:49:53;11.95;;;1.92;;
69931;SDS011;57243;52.064;5.116;2022-08-03T06:52:19;6.67;;;1.90;;
69931;SDS011;57243;52.064;5.116;2022-08-03T06:54:44;7.15;;;2.15;;
69931;SDS011;57243;52.064;5.116;2022-08-03T06:57:10;6.75;;;1.88;;
69931;SDS011;57243;52.064;5.116;2022-08-03T06:59:35;10.10;;;1.80;;
69931;SDS011;57243;52.064;5.116;2022-08-03T07:02:01;8.43;;;1.70;;
69931;SDS011;57243;52.064;5.116;2022-08-03T07:04:27;7.83;;;1.60;;
69931;SDS011;57243;52.064;5.116;2022-08-03T07:06:52;6.93;;;1.87;;
69931;SDS011;57243;52.064;5.116;2022-08-03T07:09:19;10.07;;;1.90;;
69931;SDS011;57243;52.064;5.116;2022-08-03T07:11:44;7.30;;;2.05;;
69931;SDS011;57243;52.064;5.116;2022-08-03T07:14:10;8.60;;;1.50;;
69931;SDS011;57243;52.064;5.116;2022-08-03T07:16:36;9.63;;;1.77;;
69931;SDS011;57243;52.064;5.116;2022-08-03T07:19:01;9.77;;;2.38;;
69931;SDS011;57243;52.064;5.116;2022-08-03T07:21:27;8.37;;;2.07;;
69931;SDS011;57243;52.064;5.116;2022-08-03T07:23:52;8.90;;;2.45;;
69931;SDS011;57243;52.064;5.116;2022-08-03T07:26:18;11.18;;;2.42;;
69931;SDS011;57243;52.064;5.116;2022-08-03T07:28:43;8.90;;;2.37;;
69931;SDS011;57243;52.064;5.116;2022-08-03T07:31:09;8.43;;;2.13;;
69931;SDS011;57243;52.064;5.116;2022-08-03T07:33:34;16.08;;;4.72;;
69931;SDS011;57243;52.064;5.116;2022-08-03T07:36:00;13.60;;;2.63;;
69931;SDS011;57243;52.064;5.116;2022-08-03T07:38:26;8.73;;;2.17;;
69931;SDS011;57243;52.064;5.116;2022-08-03T07:40:52;9.25;;;2.03;;
69931;SDS011;57243;52.064;5.116;2022-08-03T07:43:18;10.07;;;2.25;;
69931;SDS011;57243;52.064;5.116;2022-08-03T07:45:43;12.23;;;2.57;;
69931;SDS011;57243;52.064;5.116;2022-08-03T07:48:09;10.48;;;3.33;;
69931;SDS011;57243;52.064;5.116;2022-08-03T07:50:34;10.67;;;2.27;;
69931;SDS011;57243;52.064;5.116;2022-08-03T07:53:00;9.50;;;2.00;;
69931;SDS011;57243;52.064;5.116;2022-08-03T07:55:26;7.20;;;2.20;;
69931;SDS011;57243;52.064;5.116;2022-08-03T07:58:03;10.23;;;2.20;;
69931;SDS011;57243;52.064;5.116;2022-08-03T08:00:30;8.02;;;2.05;;
69931;SDS011;57243;52.064;5.116;2022-08-03T08:02:56;10.73;;;2.28;;
69931;SDS011;57243;52.064;5.116;2022-08-03T08:05:22;10.40;;;2.05;;
69931;SDS011;57243;52.064;5.116;2022-08-03T08:07:48;8.07;;;2.03;;
69931;SDS011;57243;52.064;5.116;2022-08-03T08:10:13;9.25;;;1.85;;
69931;SDS011;57243;52.064;5.116;2022-08-03T08:12:40;4.93;;;2.37;;
69931;SDS011;57243;52.064;5.116;2022-08-03T08:15:06;9.38;;;1.85;;
69931;SDS011;57243;52.064;5.116;2022-08-03T08:17:46;12.27;;;2.45;;
69931;SDS011;57243;52.064;5.116;2022-08-03T08:20:17;6.68;;;2.22;;
69931;SDS011;57243;52.064;5.116;2022-08-03T08:22:44;10.10;;;2.05;;
69931;SDS011;57243;52.064;5.116;2022-08-03T08:25:10;7.93;;;2.20;;
69931;SDS011;57243;52.064;5.116;2022-08-03T08:27:40;14.48;;;2.03;;
69931;SDS011;57243;52.064;5.116;2022-08-03T08:30:06;12.85;;;2.17;;
69931;SDS011;57243;52.064;5.116;2022-08-03T08:32:33;9.95;;;2.70;;
69931;SDS011;57243;52.064;5.116;2022-08-03T08:34:58;5.95;;;1.92;;
69931;SDS011;57243;52.064;5.116;2022-08-03T08:37:24;10.40;;;1.93;;
69931;SDS011;57243;52.064;5.116;2022-08-03T08:39:50;11.45;;;2.30;;
69931;SDS011;57243;52.064;5.116;2022-08-03T08:42:15;11.77;;;2.20;;
69931;SDS011;57243;52.064;5.116;2022-08-03T08:44:41;8.50;;;2.27;;
69931;SDS011;57243;52.064;5.116;2022-08-03T08:47:06;8.77;;;2.13;;
69931;SDS011;57243;52.064;5.116;2022-08-03T08:49:34;6.88;;;2.22;;
69931;SDS011;57243;52.064;5.116;2022-08-03T08:52:02;10.48;;;2.13;;
69931;SDS011;57243;52.064;5.116;2022-08-03T08:54:29;11.95;;;2.20;;
69931;SDS011;57243;52.064;5.116;2022-08-03T08:56:57;6.95;;;2.25;;
69931;SDS011;57243;52.064;5.116;2022-08-03T08:59:26;9.95;;;2.40;;
69931;SDS011;57243;52.064;5.116;2022-08-03T09:02:01;8.23;;;2.33;;
69931;SDS011;57243;52.064;5.116;2022-08-03T09:04:27;5.80;;;2.10;;
69931;SDS011;57243;52.064;5.116;2022-08-03T09:06:54;10.48;;;2.17;;
69931;SDS011;57243;52.064;5.116;2022-08-03T09:09:20;12.00;;;2.55;;
69931;SDS011;57243;52.064;5.116;2022-08-03T09:11:47;9.63;;;2.23;;
69931;SDS011;57243;52.064;5.116;2022-08-03T09:14:13;14.48;;;2.85;;
69931;SDS011;57243;52.064;5.116;2022-08-03T09:16:53;12.97;;;2.67;;
69931;SDS011;57243;52.064;5.116;2022-08-03T09:19:22;18.13;;;4.25;;
69931;SDS011;57243;52.064;5.116;2022-08-03T09:21:48;21.97;;;3.93;;
69931;SDS011;57243;52.064;5.116;2022-08-03T09:24:36;14.98;;;3.38;;
69931;SDS011;57243;52.064;5.116;2022-08-03T09:27:04;10.48;;;3.25;;
69931;SDS011;57243;52.064;5.116;2022-08-03T09:29:35;20.23;;;4.07;;
69931;SDS011;57243;52.064;5.116;2022-08-03T09:32:01;15.77;;;3.83;;
69931;SDS011;57243;52.064;5.116;2022-08-03T09:34:28;15.98;;;3.80;;
69931;SDS011;57243;52.064;5.116;2022-08-03T09:36:54;16.25;;;3.33;;
69931;SDS011;57243;52.064;5.116;2022-08-03T09:39:23;11.73;;;3.17;;
69931;SDS011;57243;52.064;5.116;2022-08-03T09:42:06;16.52;;;3.30;;
69931;SDS011;57243;52.064;5.116;2022-08-03T09:44:36;11.93;;;3.83;;
69931;SDS011;57243;52.064;5.116;2022-08-03T09:47:03;22.33;;;3.63;;
69931;SDS011;57243;52.064;5.116;2022-08-03T09:49:30;15.93;;;2.95;;
69931;SDS011;57243;52.064;5.116;2022-08-03T09:51:56;13.47;;;3.43;;
69931;SDS011;57243;52.064;5.116;2022-08-03T09:54:27;13.52;;;3.30;;
69931;SDS011;57243;52.064;5.116;2022-08-03T09:56:54;17.23;;;3.42;;
69931;SDS011;57243;52.064;5.116;2022-08-03T09:59:27;17.38;;;3.10;;
69931;SDS011;57243;52.064;5.116;2022-08-03T10:01:54;14.77;;;3.47;;
69931;SDS011;57243;52.064;5.116;2022-08-03T10:04:21;11.47;;;2.60;;
69931;SDS011;57243;52.064;5.116;2022-08-03T10:09:35;13.60;;;3.03;;
69931;SDS011;57243;52.064;5.116;2022-08-03T10:12:09;14.02;;;3.30;;
69931;SDS011;57243;52.064;5.116;2022-08-03T10:14:39;9.50;;;3.10;;
69931;SDS011;57243;52.064;5.116;2022-08-03T10:17:06;26.90;;;3.33;;
69931;SDS011;57243;52.064;5.116;2022-08-03T10:19:33;16.40;;;3.03;;
69931;SDS011;57243;52.064;5.116;2022-08-03T10:22:03;13.97;;;2.73;;
69931;SDS011;57243;52.064;5.116;2022-08-03T10:24:34;11.90;;;2.47;;
69931;SDS011;57243;52.064;5.116;2022-08-03T10:27:04;12.75;;;3.65;;
69931;SDS011;57243;52.064;5.116;2022-08-03T10:29:36;19.05;;;3.60;;
69931;SDS011;57243;52.064;5.116;2022-08-03T10:32:03;7.95;;;2.72;;
69931;SDS011;57243;52.064;5.116;2022-08-03T10:34:34;7.97;;;2.30;;
69931;SDS011;57243;52.064;5.116;2022-08-03T10:37:06;10.90;;;2.03;;
69931;SDS011;57243;52.064;5.116;2022-08-03T10:39:35;13.13;;;2.63;;
69931;SDS011;57243;52.064;5.116;2022-08-03T10:42:02;14.02;;;3.45;;
69931;SDS011;57243;52.064;5.116;2022-08-03T10:44:32;12.65;;;2.40;;
69931;SDS011;57243;52.064;5.116;2022-08-03T10:47:03;8.30;;;2.20;;
69931;SDS011;57243;52.064;5.116;2022-08-03T10:49:29;11.25;;;2.58;;
69931;SDS011;57243;52.064;5.116;2022-08-03T10:51:55;11.98;;;2.70;;
69931;SDS011;57243;52.064;5.116;2022-08-03T11:00:15;10.18;;;2.58;;
69931;SDS011;57243;52.064;5.116;2022-08-03T11:03:03;8.82;;;2.55;;
69931;SDS011;57243;52.064;5.116;2022-08-03T11:05:37;12.25;;;2.67;;
69931;SDS011;57243;52.064;5.116;2022-08-03T11:10:47;15.47;;;2.57;;
69931;SDS011;57243;52.064;5.116;2022-08-03T11:13:17;12.48;;;2.53;;
69931;SDS011;57243;52.064;5.116;2022-08-03T11:15:44;10.50;;;2.92;;
69931;SDS011;57243;52.064;5.116;2022-08-03T11:18:12;9.55;;;2.30;;
69931;SDS011;57243;52.064;5.116;2022-08-03T11:20:44;8.07;;;2.47;;
69931;SDS011;57243;52.064;5.116;2022-08-03T11:23:11;11.10;;;2.87;;
69931;SDS011;57243;52.064;5.116;2022-08-03T11:28:32;9.63;;;2.17;;
69931;SDS011;57243;52.064;5.116;2022-08-03T11:31:28;15.02;;;2.50;;
69931;SDS011;57243;52.064;5.116;2022-08-03T11:39:40;8.05;;;2.15;;
69931;SDS011;57243;52.064;5.116;2022-08-03T11:47:20;8.03;;;2.00;;
69931;SDS011;57243;52.064;5.116;2022-08-03T11:49:48;8.52;;;2.35;;
69931;SDS011;57243;52.064;5.116;2022-08-03T11:52:15;10.18;;;2.85;;
69931;SDS011;57243;52.064;5.116;2022-08-03T11:54:42;8.68;;;2.40;;
69931;SDS011;57243;52.064;5.116;2022-08-03T11:57:08;8.10;;;2.13;;
69931;SDS011;57243;52.064;5.116;2022-08-03T11:59:34;11.30;;;2.37;;
69931;SDS011;57243;52.064;5.116;2022-08-03T12:02:11;7.88;;;2.55;;
69931;SDS011;57243;52.064;5.116;2022-08-03T12:04:51;9.88;;;3.15;;
69931;SDS011;57243;52.064;5.116;2022-08-03T12:07:18;12.00;;;2.90;;
69931;SDS011;57243;52.064;5.116;2022-08-03T12:10:04;6.85;;;2.38;;
69931;SDS011;57243;52.064;5.116;2022-08-03T12:12:30;7.60;;;2.20;;
69931;SDS011;57243;52.064;5.116;2022-08-03T12:14:56;9.40;;;2.13;;
69931;SDS011;57243;52.064;5.116;2022-08-03T12:17:22;11.70;;;2.53;;
69931;SDS011;57243;52.064;5.116;2022-08-03T12:19:48;7.20;;;2.43;;
69931;SDS011;57243;52.064;5.116;2022-08-03T12:22:14;9.63;;;2.40;;
69931;SDS011;57243;52.064;5.116;2022-08-03T12:24:43;8.57;;;2.35;;
69931;SDS011;57243;52.064;5.116;2022-08-03T12:27:09;7.05;;;2.20;;
69931;SDS011;57243;52.064;5.116;2022-08-03T12:29:35;7.18;;;2.42;;
69931;SDS011;57243;52.064;5.116;2022-08-03T12:32:01;10.85;;;2.25;;
69931;SDS011;57243;52.064;5.116;2022-08-03T12:34:45;7.77;;;2.30;;
69931;SDS011;57243;52.064;5.116;2022-08-03T12:37:12;10.93;;;2.35;;
69931;SDS011;57243;52.064;5.116;2022-08-03T12:39:38;7.45;;;2.20;;
69931;SDS011;57243;52.064;5.116;2022-08-03T12:42:04;7.90;;;2.20;;
69931;SDS011;57243;52.064;5.116;2022-08-03T12:44:30;6.97;;;2.00;;
69931;SDS011;57243;52.064;5.116;2022-08-03T12:46:57;7.22;;;1.90;;
69931;SDS011;57243;52.064;5.116;2022-08-03T12:49:24;8.65;;;2.05;;
69931;SDS011;57243;52.064;5.116;2022-08-03T12:54:16;7.53;;;2.27;;
69931;SDS011;57243;52.064;5.116;2022-08-03T12:56:59;5.93;;;1.92;;
69931;SDS011;57243;52.064;5.116;2022-08-03T12:59:26;6.90;;;2.35;;
69931;SDS011;57243;52.064;5.116;2022-08-03T13:01:55;5.53;;;1.85;;
69931;SDS011;57243;52.064;5.116;2022-08-03T13:04:28;8.30;;;2.42;;
69931;SDS011;57243;52.064;5.116;2022-08-03T13:06:57;8.07;;;2.28;;
69931;SDS011;57243;52.064;5.116;2022-08-03T13:09:28;5.30;;;1.85;;
69931;SDS011;57243;52.064;5.116;2022-08-03T13:12:05;9.52;;;2.00;;
69931;SDS011;57243;52.064;5.116;2022-08-03T13:14:32;7.10;;;2.25;;
69931;SDS011;57243;52.064;5.116;2022-08-03T13:16:58;7.50;;;2.10;;
69931;SDS011;57243;52.064;5.116;2022-08-03T13:19:23;5.93;;;2.45;;
69931;SDS011;57243;52.064;5.116;2022-08-03T13:21:49;4.57;;;2.20;;
69931;SDS011;57243;52.064;5.116;2022-08-03T13:24:15;10.15;;;2.20;;
69931;SDS011;57243;52.064;5.116;2022-08-03T13:26:40;6.57;;;2.10;;
69931;SDS011;57243;52.064;5.116;2022-08-03T13:29:06;7.23;;;1.90;;
69931;SDS011;57243;52.064;5.116;2022-08-03T13:31:32;6.72;;;2.28;;
69931;SDS011;57243;52.064;5.116;2022-08-03T13:33:57;7.87;;;1.93;;
69931;SDS011;57243;52.064;5.116;2022-08-03T13:36:23;7.93;;;2.20;;
69931;SDS011;57243;52.064;5.116;2022-08-03T13:38:49;8.60;;;2.40;;
69931;SDS011;57243;52.064;5.116;2022-08-03T13:41:14;4.47;;;2.38;;
69931;SDS011;57243;52.064;5.116;2022-08-03T13:43:40;6.63;;;2.75;;
69931;SDS011;57243;52.064;5.116;2022-08-03T13:46:06;6.10;;;2.10;;
69931;SDS011;57243;52.064;5.116;2022-08-03T13:48:31;7.90;;;2.20;;
69931;SDS011;57243;52.064;5.116;2022-08-03T13:50:57;5.72;;;2.17;;
69931;SDS011;57243;52.064;5.116;2022-08-03T13:53:23;5.67;;;2.23;;
69931;SDS011;57243;52.064;5.116;2022-08-03T13:55:48;5.28;;;2.50;;
69931;SDS011;57243;52.064;5.116;2022-08-03T13:58:14;6.77;;;2.30;;
69931;SDS011;57243;52.064;5.116;2022-08-03T14:00:39;6.23;;;2.50;;
69931;SDS011;57243;52.064;5.116;2022-08-03T14:03:05;5.03;;;2.20;;
69931;SDS011;57243;52.064;5.116;2022-08-03T14:05:31;6.88;;;2.42;;
69931;SDS011;57243;52.064;5.116;2022-08-03T14:07:57;13.45;;;2.30;;
69931;SDS011;57243;52.064;5.116;2022-08-03T14:10:25;5.13;;;2.35;;
69931;SDS011;57243;52.064;5.116;2022-08-03T14:12:50;3.78;;;1.88;;
69931;SDS011;57243;52.064;5.116;2022-08-03T14:15:16;7.57;;;2.03;;
69931;SDS011;57243;52.064;5.116;2022-08-03T14:17:41;6.13;;;2.00;;
69931;SDS011;57243;52.064;5.116;2022-08-03T14:20:07;6.03;;;2.03;;
69931;SDS011;57243;52.064;5.116;2022-08-03T14:22:33;5.97;;;2.25;;
69931;SDS011;57243;52.064;5.116;2022-08-03T14:25:06;7.03;;;1.95;;
69931;SDS011;57243;52.064;5.116;2022-08-03T14:27:32;6.57;;;2.23;;
69931;SDS011;57243;52.064;5.116;2022-08-03T14:29:57;6.00;;;2.17;;
69931;SDS011;57243;52.064;5.116;2022-08-03T14:32:25;5.13;;;2.30;;
69931;SDS011;57243;52.064;5.116;2022-08-03T14:34:51;4.00;;;2.05;;
69931;SDS011;57243;52.064;5.116;2022-08-03T14:37:17;6.18;;;2.08;;
69931;SDS011;57243;52.064;5.116;2022-08-03T14:39:42;4.67;;;2.30;;
69931;SDS011;57243;52.064;5.116;2022-08-03T14:42:08;6.28;;;2.10;;
69931;SDS011;57243;52.064;5.116;2022-08-03T14:44:34;6.00;;;2.03;;
69931;SDS011;57243;52.064;5.116;2022-08-03T14:46:59;3.90;;;1.67;;
69931;SDS011;57243;52.064;5.116;2022-08-03T14:49:25;4.78;;;1.80;;
69931;SDS011;57243;52.064;5.116;2022-08-03T14:51:50;8.17;;;2.27;;
69931;SDS011;57243;52.064;5.116;2022-08-03T14:54:16;7.30;;;2.13;;
69931;SDS011;57243;52.064;5.116;2022-08-03T14:56:41;7.07;;;2.35;;
69931;SDS011;57243;52.064;5.116;2022-08-03T14:59:07;4.00;;;2.00;;
69931;SDS011;57243;52.064;5.116;2022-08-03T15:01:33;7.97;;;2.20;;
69931;SDS011;57243;52.064;5.116;2022-08-03T15:03:58;5.43;;;1.80;;
69931;SDS011;57243;52.064;5.116;2022-08-03T15:06:24;7.37;;;1.80;;
69931;SDS011;57243;52.064;5.116;2022-08-03T15:08:49;10.05;;;2.28;;
69931;SDS011;57243;52.064;5.116;2022-08-03T15:11:15;10.32;;;2.13;;
69931;SDS011;57243;52.064;5.116;2022-08-03T15:13:40;10.53;;;1.90;;
69931;SDS011;57243;52.064;5.116;2022-08-03T15:16:06;23.50;;;3.00;;
69931;SDS011;57243;52.064;5.116;2022-08-03T15:18:33;6.30;;;2.90;;
69931;SDS011;57243;52.064;5.116;2022-08-03T15:20:58;6.68;;;2.10;;
69931;SDS011;57243;52.064;5.116;2022-08-03T15:23:24;11.73;;;2.60;;
69931;SDS011;57243;52.064;5.116;2022-08-03T15:25:50;5.15;;;1.95;;